createdAt,value
2023-03-02T00:01:54.083Z,60.49
2023-03-02T00:04:26.745Z,60.94
2023-03-02T00:07:00.493Z,60.69
2023-03-02T00:09:29.354Z,60.78
2023-03-02T00:11:57.329Z,60.81
2023-03-02T00:14:24.873Z,60.97
2023-03-02T00:16:52.410Z,60.80
2023-03-02T00:19:20.058Z,61.03
2023-03-02T00:21:47.680Z,60.54
2023-03-02T00:24:17.930Z,61.04
2023-03-02T00:26:45.826Z,61.03
2023-03-02T00:29:13.899Z,61.22
2023-03-02T00:31:41.617Z,61.24
2023-03-02T00:34:09.174Z,61.35
2023-03-02T00:36:36.711Z,61.62
2023-03-02T00:39:04.885Z,61.39
2023-03-02T00:41:32.366Z,61.39
2023-03-02T00:43:59.967Z,61.02
2023-03-02T00:46:28.738Z,61.06
2023-03-02T00:48:56.418Z,61.29
2023-03-02T00:51:25.163Z,60.92
2023-03-02T00:53:52.761Z,60.96
2023-03-02T00:56:20.350Z,60.63
2023-03-02T00:58:51.075Z,60.79
2023-03-02T01:01:18.979Z,60.23
2023-03-02T01:03:50.174Z,60.28
2023-03-02T01:06:20.531Z,60.09
2023-03-02T01:08:48.331Z,59.89
2023-03-02T01:11:18.264Z,59.11
2023-03-02T01:13:48.276Z,59.11
2023-03-02T01:16:16.187Z,59.09
2023-03-02T01:18:43.887Z,59.56
2023-03-02T01:21:13.828Z,59.60
2023-03-02T01:23:41.968Z,59.33
2023-03-02T01:26:10.007Z,59.67
2023-03-02T01:28:37.490Z,59.29
2023-03-02T01:31:05.313Z,59.25
2023-03-02T01:33:33.246Z,59.32
2023-03-02T01:36:01.045Z,59.14
2023-03-02T01:38:29.012Z,59.20
2023-03-02T01:40:56.778Z,58.74
2023-03-02T01:43:24.615Z,59.12
2023-03-02T01:45:56.264Z,58.89
2023-03-02T01:48:48.574Z,58.45
2023-03-02T01:51:24.093Z,58.47
2023-03-02T01:53:56.966Z,58.15
2023-03-02T01:56:34.846Z,58.14
2023-03-02T01:59:07.800Z,58.18
2023-03-02T02:01:37.974Z,57.89
2023-03-02T02:04:07.546Z,58.15
2023-03-02T02:06:47.160Z,58.14
2023-03-02T02:09:18.351Z,58.31
2023-03-02T02:11:46.623Z,58.15
2023-03-02T02:14:14.815Z,57.87
2023-03-02T02:16:42.670Z,57.79
2023-03-02T02:19:24.384Z,58.00
2023-03-02T02:21:54.762Z,58.16
2023-03-02T02:24:41.529Z,58.46
2023-03-02T02:27:11.117Z,57.74
2023-03-02T02:29:45.601Z,58.00
2023-03-02T02:32:18.457Z,57.97
2023-03-02T02:35:05.608Z,57.95
2023-03-02T02:37:39.679Z,58.23
2023-03-02T02:40:15.473Z,57.92
2023-03-02T02:42:46.698Z,57.66
2023-03-02T02:45:27.508Z,58.24
2023-03-02T02:47:57.216Z,57.72
2023-03-02T02:50:29.817Z,57.67
2023-03-02T02:53:30.397Z,58.42
2023-03-02T02:55:59.263Z,57.82
2023-03-02T02:58:45.060Z,58.22
2023-03-02T03:01:15.451Z,57.84
2023-03-02T03:03:50.769Z,58.24
2023-03-02T03:06:21.115Z,57.62
2023-03-02T03:08:53.204Z,57.81
2023-03-02T03:11:28.030Z,58.12
2023-03-02T03:14:39.323Z,57.74
2023-03-02T03:17:12.282Z,57.52
2023-03-02T03:19:47.133Z,57.36
2023-03-02T03:22:16.750Z,57.33
2023-03-02T03:24:46.716Z,57.46
2023-03-02T03:27:16.838Z,57.37
2023-03-02T03:29:50.343Z,56.92
2023-03-02T03:32:20.777Z,56.97
2023-03-02T03:34:50.505Z,57.07
2023-03-02T03:37:30.610Z,56.98
2023-03-02T03:39:58.356Z,57.03
2023-03-02T03:42:26.062Z,56.99
2023-03-02T03:44:55.645Z,56.93
2023-03-02T03:47:24.011Z,56.85
2023-03-02T03:49:52.372Z,56.66
2023-03-02T03:52:30.859Z,56.48
2023-03-02T03:55:07.475Z,56.52
2023-03-02T03:57:35.404Z,56.33
2023-03-02T04:00:08.137Z,56.39
2023-03-02T04:02:42.101Z,56.45
2023-03-02T04:05:12.806Z,56.19
2023-03-02T04:07:41.268Z,56.16
2023-03-02T04:10:10.377Z,55.98
2023-03-02T04:12:41.360Z,56.16
2023-03-02T04:15:14.783Z,56.55
2023-03-02T04:17:45.067Z,56.21
2023-03-02T04:20:16.842Z,56.67
2023-03-02T04:22:49.573Z,56.49
2023-03-02T04:25:21.323Z,56.76
2023-03-02T04:27:52.804Z,56.71
2023-03-02T04:30:25.045Z,57.51
2023-03-02T04:32:53.031Z,56.72
2023-03-02T04:35:21.511Z,56.89
2023-03-02T04:37:49.234Z,56.89
2023-03-02T04:40:17.688Z,56.56
2023-03-02T04:42:45.177Z,56.71
2023-03-02T04:45:13.747Z,56.59
2023-03-02T04:47:41.920Z,56.25
2023-03-02T04:50:12.253Z,56.56
2023-03-02T04:52:40.215Z,56.17
2023-03-02T04:55:08.209Z,55.91
2023-03-02T04:57:35.807Z,55.77
2023-03-02T05:00:05.038Z,56.15
2023-03-02T05:02:32.598Z,55.51
2023-03-02T05:05:00.318Z,55.69
2023-03-02T05:07:28.289Z,55.55
2023-03-02T05:09:56.372Z,55.74
2023-03-02T05:12:24.326Z,55.43
2023-03-02T05:14:51.829Z,55.52
2023-03-02T05:17:19.307Z,55.48
2023-03-02T05:19:46.816Z,55.63
2023-03-02T05:22:14.362Z,55.66
2023-03-02T05:24:41.869Z,55.36
2023-03-02T05:27:09.456Z,55.28
2023-03-02T05:29:36.941Z,55.74
2023-03-02T05:32:04.811Z,55.36
2023-03-02T05:34:32.459Z,55.37
2023-03-02T05:37:00.020Z,55.87
2023-03-02T05:39:27.686Z,55.78
2023-03-02T05:41:58.449Z,56.18
2023-03-02T05:44:25.952Z,56.03
2023-03-02T05:46:53.553Z,56.21
2023-03-02T05:49:21.211Z,56.26
2023-03-02T05:51:48.653Z,56.70
2023-03-02T05:54:16.262Z,57.23
2023-03-02T05:56:43.923Z,57.32
2023-03-02T05:59:13.807Z,57.52
2023-03-02T06:01:41.343Z,57.71
2023-03-02T06:04:08.947Z,57.68
2023-03-02T06:06:36.731Z,57.62
2023-03-02T06:09:04.679Z,57.73
2023-03-02T06:11:32.321Z,58.02
2023-03-02T06:14:00.027Z,58.19
2023-03-02T06:16:27.598Z,57.83
2023-03-02T06:18:55.193Z,58.01
2023-03-02T06:21:22.763Z,58.16
2023-03-02T06:23:50.427Z,58.14
2023-03-02T06:26:17.898Z,58.02
2023-03-02T06:28:52.731Z,58.00
2023-03-02T06:31:22.217Z,57.54
2023-03-02T06:33:49.954Z,57.13
2023-03-02T06:36:17.713Z,56.84
2023-03-02T06:38:45.368Z,56.74
2023-03-02T06:41:12.928Z,56.31
2023-03-02T06:43:40.471Z,55.59
2023-03-02T06:46:08.542Z,55.55
2023-03-02T06:48:36.124Z,54.92
2023-03-02T06:51:03.771Z,54.53
2023-03-02T06:53:31.310Z,53.89
2023-03-02T06:55:58.833Z,53.23
2023-03-02T06:58:26.308Z,52.93
2023-03-02T07:00:54.087Z,52.79
2023-03-02T07:03:21.665Z,52.06
2023-03-02T07:05:50.178Z,51.98
2023-03-02T07:08:17.986Z,51.50
2023-03-02T07:10:47.657Z,51.28
2023-03-02T07:13:15.264Z,50.50
2023-03-02T07:15:42.912Z,50.05
2023-03-02T07:18:10.426Z,49.76
2023-03-02T07:20:38.398Z,49.38
2023-03-02T07:23:06.607Z,49.13
2023-03-02T07:25:34.219Z,48.90
2023-03-02T07:28:01.749Z,48.87
2023-03-02T07:30:31.501Z,48.61
2023-03-02T07:32:59.201Z,48.35
2023-03-02T07:35:26.820Z,48.48
2023-03-02T07:37:54.410Z,49.07
2023-03-02T07:40:21.889Z,49.17
2023-03-02T07:42:49.586Z,48.63
2023-03-02T07:45:20.306Z,49.01
2023-03-02T07:47:47.800Z,49.17
2023-03-02T07:50:15.569Z,48.62
2023-03-02T07:52:43.332Z,48.89
2023-03-02T07:55:11.259Z,48.46
2023-03-02T07:57:38.893Z,48.60
2023-03-02T08:00:07.119Z,48.15
2023-03-02T08:02:40.476Z,47.52
2023-03-02T08:05:09.271Z,47.67
2023-03-02T08:07:36.804Z,47.56
2023-03-02T08:10:05.287Z,46.96
2023-03-02T08:12:32.749Z,46.70
2023-03-02T08:15:00.175Z,45.84
2023-03-02T08:17:27.694Z,45.80
2023-03-02T08:19:55.164Z,45.64
2023-03-02T08:22:22.694Z,45.45
2023-03-02T08:24:50.279Z,45.46
2023-03-02T08:27:18.033Z,45.03
2023-03-02T08:29:45.523Z,45.12
2023-03-02T08:32:13.197Z,44.46
2023-03-02T08:34:40.788Z,44.40
2023-03-02T08:37:08.357Z,44.17
2023-03-02T08:39:35.882Z,44.43
2023-03-02T08:42:04.144Z,43.81
2023-03-02T08:44:32.474Z,43.98
2023-03-02T08:46:59.983Z,44.05
2023-03-02T08:49:27.990Z,43.88
2023-03-02T08:51:56.526Z,43.57
2023-03-02T08:54:24.327Z,43.37
2023-03-02T08:56:51.815Z,43.46
2023-03-02T08:59:23.690Z,43.36
2023-03-02T09:01:52.609Z,43.70
2023-03-02T09:04:20.434Z,44.10
2023-03-02T09:06:55.649Z,44.17
2023-03-02T09:09:23.269Z,44.14
2023-03-02T09:11:50.866Z,44.36
2023-03-02T09:14:18.458Z,44.51
2023-03-02T09:16:47.115Z,44.31
2023-03-02T09:19:14.938Z,44.54
2023-03-02T09:21:42.454Z,44.49
2023-03-02T09:24:10.369Z,44.25
2023-03-02T09:26:39.236Z,43.89
2023-03-02T09:29:07.417Z,43.53
2023-03-02T09:31:36.431Z,44.14
2023-03-02T09:34:04.615Z,44.04
2023-03-02T09:36:35.301Z,44.38
2023-03-02T09:39:08.776Z,44.27
2023-03-02T09:41:54.611Z,43.78
2023-03-02T09:44:53.035Z,43.98
2023-03-02T09:47:35.809Z,43.86
2023-03-02T09:50:25.656Z,44.03
2023-03-02T09:53:05.045Z,43.89
2023-03-02T09:55:36.553Z,43.96
2023-03-02T09:58:09.292Z,43.48
2023-03-02T10:00:41.224Z,43.23
2023-03-02T10:03:20.944Z,43.37
2023-03-02T10:05:51.159Z,42.59
2023-03-02T10:08:21.100Z,41.82
2023-03-02T10:11:02.092Z,42.02
2023-03-02T10:13:37.342Z,41.60
2023-03-02T10:16:31.225Z,41.37
2023-03-02T10:19:11.685Z,41.49
2023-03-02T10:22:03.561Z,39.28
2023-03-02T10:24:50.491Z,39.33
2023-03-02T10:27:26.445Z,39.44
2023-03-02T10:30:08.501Z,39.23
2023-03-02T10:32:43.976Z,39.31
2023-03-02T10:35:23.878Z,37.09
2023-03-02T10:37:57.213Z,37.58
2023-03-02T10:40:42.712Z,36.91
2023-03-02T10:43:26.238Z,36.63
2023-03-02T10:46:09.293Z,37.54
2023-03-02T10:48:58.321Z,37.86
2023-03-02T10:51:31.516Z,38.65
2023-03-02T10:54:11.732Z,38.66
2023-03-02T10:56:43.216Z,38.91
2023-03-02T10:59:28.723Z,38.20
2023-03-02T11:02:27.758Z,38.09
2023-03-02T11:05:20.033Z,38.75
2023-03-02T11:08:05.104Z,39.37
2023-03-02T11:10:36.853Z,40.06
2023-03-02T11:13:20.711Z,39.94
2023-03-02T11:15:51.205Z,39.47
2023-03-02T11:18:34.950Z,39.80
2023-03-02T11:21:12.891Z,39.52
2023-03-02T11:23:53.118Z,38.95
2023-03-02T11:26:37.896Z,38.32
2023-03-02T11:29:34.870Z,38.88
2023-03-02T11:32:08.464Z,39.88
2023-03-02T11:34:57.611Z,40.95
2023-03-02T11:37:40.492Z,41.26
2023-03-02T11:40:17.411Z,42.02
2023-03-02T11:42:46.076Z,41.94
2023-03-02T11:45:13.883Z,42.05
2023-03-02T11:47:54.273Z,41.81
2023-03-02T11:50:26.021Z,41.86
2023-03-02T11:52:59.585Z,41.76
2023-03-02T11:55:31.116Z,42.20
2023-03-02T11:58:04.824Z,42.66
2023-03-02T12:00:43.449Z,42.73
2023-03-02T12:03:17.143Z,43.20
2023-03-02T12:06:01.713Z,42.69
2023-03-02T12:08:42.209Z,42.40
2023-03-02T12:11:19.268Z,42.24
2023-03-02T12:13:50.110Z,42.11
2023-03-02T12:16:24.383Z,42.19
2023-03-02T12:18:52.819Z,41.96
2023-03-02T12:21:23.160Z,42.22
2023-03-02T12:24:22.456Z,42.13
2023-03-02T12:27:27.094Z,42.64
2023-03-02T12:30:32.793Z,42.81
2023-03-02T12:34:11.815Z,42.81
2023-03-02T12:38:22.501Z,42.58
2023-03-02T12:45:56.173Z,41.74
2023-03-02T12:49:37.288Z,41.52
2023-03-02T12:52:36.908Z,42.02
2023-03-02T12:55:40.845Z,43.12
2023-03-02T12:58:21.164Z,43.74
2023-03-02T13:01:02.400Z,43.88
2023-03-02T13:03:51.020Z,44.30
2023-03-02T13:11:39.400Z,43.96
2023-03-02T13:14:50.109Z,43.93
2023-03-02T13:17:31.108Z,44.35
2023-03-02T13:20:00.999Z,44.71
2023-03-02T13:22:29.566Z,45.16
2023-03-02T13:25:03.572Z,45.67
2023-03-02T13:27:33.977Z,45.32
2023-03-02T13:30:22.125Z,46.38
2023-03-02T13:32:51.373Z,45.93
2023-03-02T13:35:26.440Z,45.96
2023-03-02T13:38:21.644Z,46.27
2023-03-02T13:40:51.998Z,46.05
2023-03-02T13:43:39.745Z,46.10
2023-03-02T13:46:13.319Z,46.41
2023-03-02T13:48:40.867Z,46.17
2023-03-02T13:51:16.159Z,46.75
2023-03-02T13:53:53.533Z,47.06
2023-03-02T13:56:27.163Z,47.30
2023-03-02T13:58:54.685Z,47.28
2023-03-02T14:01:22.289Z,47.13
2023-03-02T14:03:49.842Z,47.36
2023-03-02T14:06:18.945Z,47.27
2023-03-02T14:08:47.325Z,47.67
2023-03-02T14:11:16.045Z,47.79
2023-03-02T14:13:52.995Z,48.31
2023-03-02T14:16:21.116Z,48.42
2023-03-02T14:18:52.409Z,48.76
2023-03-02T14:21:27.648Z,48.60
2023-03-02T14:23:56.167Z,48.24
2023-03-02T14:26:33.220Z,49.13
2023-03-02T14:29:21.359Z,49.40
2023-03-02T14:31:54.228Z,48.83
2023-03-02T14:34:22.128Z,49.04
2023-03-02T14:36:53.868Z,49.38
2023-03-02T14:39:37.337Z,49.70
2023-03-02T14:42:16.953Z,50.14
2023-03-02T14:44:46.458Z,49.36
2023-03-02T14:47:16.713Z,49.37
2023-03-02T14:49:44.658Z,49.41
2023-03-02T14:52:23.522Z,49.50
2023-03-02T14:54:55.145Z,50.17
2023-03-02T14:57:28.079Z,50.52
2023-03-02T14:59:56.708Z,50.49
2023-03-02T15:02:26.555Z,50.19
2023-03-02T15:04:57.622Z,50.47
2023-03-02T15:07:28.994Z,51.24
2023-03-02T15:09:57.903Z,51.36
2023-03-02T15:12:25.930Z,51.87
2023-03-02T15:14:53.431Z,52.24
2023-03-02T15:17:21.069Z,52.95
2023-03-02T15:19:48.699Z,53.03
2023-03-02T15:22:16.561Z,52.91
2023-03-02T15:24:46.477Z,53.32
2023-03-02T15:27:14.190Z,53.28
2023-03-02T15:29:46.578Z,54.34
2023-03-02T15:32:15.111Z,53.45
2023-03-02T15:34:45.919Z,53.82
2023-03-02T15:37:13.546Z,54.20
2023-03-02T15:39:41.336Z,54.20
2023-03-02T15:42:09.006Z,54.01
2023-03-02T15:44:36.622Z,53.97
2023-03-02T15:47:04.582Z,54.22
2023-03-02T15:49:33.018Z,54.37
2023-03-02T15:52:01.378Z,54.34
2023-03-02T15:54:29.353Z,54.84
2023-03-02T15:56:57.152Z,54.82
2023-03-02T15:59:27.701Z,55.25
2023-03-02T16:01:59.863Z,55.11
2023-03-02T16:04:28.144Z,55.23
2023-03-02T16:06:56.578Z,55.45
2023-03-02T16:09:25.033Z,55.74
2023-03-02T16:11:52.709Z,56.04
2023-03-02T16:14:20.386Z,55.99
2023-03-02T16:16:48.705Z,55.79
2023-03-02T16:19:19.079Z,56.13
2023-03-02T16:21:47.830Z,55.86
2023-03-02T16:24:17.139Z,55.90
2023-03-02T16:26:45.359Z,55.99
2023-03-02T16:29:14.280Z,56.28
2023-03-02T16:31:42.655Z,56.29
2023-03-02T16:34:10.757Z,56.59
2023-03-02T16:36:40.245Z,56.98
2023-03-02T16:39:09.465Z,57.10
2023-03-02T16:41:40.926Z,57.30
2023-03-02T16:44:10.702Z,57.76
2023-03-02T16:46:40.155Z,57.60
2023-03-02T16:49:07.877Z,57.51
2023-03-02T16:51:35.613Z,57.58
2023-03-02T16:54:04.152Z,57.64
2023-03-02T16:56:31.792Z,58.18
2023-03-02T16:59:00.232Z,58.04
2023-03-02T17:01:28.398Z,58.08
2023-03-02T17:03:57.481Z,58.45
2023-03-02T17:06:25.576Z,58.55
2023-03-02T17:08:55.554Z,58.18
2023-03-02T17:11:23.232Z,58.48
2023-03-02T17:13:51.005Z,58.52
2023-03-02T17:16:19.312Z,58.64
2023-03-02T17:18:47.321Z,58.98
2023-03-02T17:21:16.709Z,59.46
2023-03-02T17:23:48.072Z,59.44
2023-03-02T17:26:17.431Z,59.86
2023-03-02T17:28:45.033Z,59.61
2023-03-02T17:31:12.779Z,59.88
2023-03-02T17:33:40.427Z,59.51
2023-03-02T17:36:12.101Z,60.37
2023-03-02T17:38:40.096Z,60.36
2023-03-02T17:41:10.223Z,60.21
2023-03-02T17:43:40.247Z,60.29
2023-03-02T17:46:20.550Z,61.61
2023-03-02T17:48:52.497Z,60.62
2023-03-02T17:51:22.387Z,60.73
2023-03-02T17:53:51.580Z,61.13
2023-03-02T17:56:24.965Z,61.00
2023-03-02T17:58:56.541Z,61.64
2023-03-02T18:01:24.908Z,61.19
2023-03-02T18:03:52.601Z,61.20
2023-03-02T18:06:20.865Z,61.22
2023-03-02T18:08:50.463Z,61.61
2023-03-02T18:11:21.382Z,62.11
2023-03-02T18:13:49.198Z,61.86
2023-03-02T18:16:16.779Z,62.15
2023-03-02T18:18:44.246Z,62.59
2023-03-02T18:21:11.939Z,62.92
2023-03-02T18:23:39.930Z,62.85
2023-03-02T18:26:08.434Z,63.07
2023-03-02T18:28:35.922Z,63.31
2023-03-02T18:31:03.614Z,63.46
2023-03-02T18:33:31.537Z,63.88
2023-03-02T18:36:00.626Z,64.00
2023-03-02T18:38:31.069Z,63.48
2023-03-02T18:41:00.778Z,63.54
2023-03-02T18:43:29.024Z,63.67
2023-03-02T18:45:57.833Z,63.96
2023-03-02T18:48:25.543Z,63.99
2023-03-02T18:50:53.053Z,63.74
2023-03-02T18:53:21.061Z,63.99
2023-03-02T18:55:48.914Z,63.95
2023-03-02T18:58:22.746Z,65.00
2023-03-02T19:00:50.559Z,64.22
2023-03-02T19:03:18.371Z,64.28
2023-03-02T19:05:46.286Z,64.52
2023-03-02T19:08:14.062Z,64.43
2023-03-02T19:10:42.508Z,64.41
2023-03-02T19:13:12.139Z,64.16
2023-03-02T19:15:40.684Z,64.06
2023-03-02T19:18:09.527Z,64.03
2023-03-02T19:20:37.065Z,63.94
2023-03-02T19:23:04.737Z,63.92
2023-03-02T19:25:32.206Z,64.06
2023-03-02T19:27:59.905Z,63.82
2023-03-02T19:30:27.954Z,63.92
2023-03-02T19:32:55.602Z,63.83
2023-03-02T19:35:27.124Z,64.17
2023-03-02T19:37:54.768Z,63.75
2023-03-02T19:40:24.874Z,63.92
2023-03-02T19:42:53.602Z,63.64
2023-03-02T19:45:24.936Z,64.19
2023-03-02T19:47:52.854Z,63.72
2023-03-02T19:50:21.698Z,63.74
2023-03-02T19:52:49.944Z,63.98
2023-03-02T19:55:17.492Z,63.95
2023-03-02T19:57:50.947Z,64.23
2023-03-02T20:00:22.580Z,64.01
2023-03-02T20:02:50.885Z,63.93
2023-03-02T20:05:19.350Z,64.17
2023-03-02T20:07:48.296Z,64.18
2023-03-02T20:10:38.515Z,65.28
2023-03-02T20:13:07.435Z,64.76
2023-03-02T20:15:38.289Z,64.67
2023-03-02T20:18:08.737Z,64.45
2023-03-02T20:20:36.764Z,64.35
2023-03-02T20:23:04.724Z,64.62
2023-03-02T20:25:36.603Z,64.58
2023-03-02T20:28:05.865Z,64.63
2023-03-02T20:30:39.990Z,64.89
2023-03-02T20:33:11.944Z,64.43
2023-03-02T20:35:42.162Z,64.35
2023-03-02T20:38:15.751Z,64.84
2023-03-02T20:40:43.731Z,64.20
2023-03-02T20:43:11.424Z,64.03
2023-03-02T20:45:39.372Z,64.25
2023-03-02T20:48:07.771Z,64.22
2023-03-02T20:50:36.752Z,64.44
2023-03-02T20:53:05.484Z,64.22
2023-03-02T20:55:33.549Z,64.65
2023-03-02T20:58:01.631Z,64.64
2023-03-02T21:00:30.512Z,64.66
2023-03-02T21:02:58.521Z,64.79
2023-03-02T21:05:30.388Z,65.01
2023-03-02T21:07:58.433Z,64.73
2023-03-02T21:10:29.954Z,65.01
2023-03-02T21:12:57.850Z,64.68
2023-03-02T21:15:27.804Z,64.79
2023-03-02T21:17:56.227Z,64.74
2023-03-02T21:20:25.528Z,64.75
2023-03-02T21:22:53.010Z,64.48
2023-03-02T21:25:20.681Z,64.80
2023-03-02T21:27:48.799Z,64.75
2023-03-02T21:30:19.966Z,64.91
2023-03-02T21:32:48.787Z,64.91
2023-03-02T21:35:20.126Z,65.10
2023-03-02T21:37:51.044Z,65.33
2023-03-02T21:40:26.206Z,65.25
2023-03-02T21:42:54.555Z,65.10
2023-03-02T21:45:23.019Z,65.51
2023-03-02T21:47:51.428Z,65.32
2023-03-02T21:50:28.500Z,65.73
2023-03-02T21:52:59.388Z,65.27
2023-03-02T21:55:29.166Z,65.52
2023-03-02T21:57:56.815Z,65.58
2023-03-02T22:00:42.478Z,66.99
2023-03-02T22:03:10.018Z,66.29
2023-03-02T22:05:39.192Z,66.33
2023-03-02T22:08:07.290Z,66.28
2023-03-02T22:10:41.744Z,67.14
2023-03-02T22:13:26.150Z,67.58
2023-03-02T22:16:04.777Z,67.12
2023-03-02T22:18:32.368Z,65.77
2023-03-02T22:20:59.911Z,66.01
2023-03-02T22:23:27.970Z,65.97
2023-03-02T22:26:11.818Z,66.58
2023-03-02T22:28:41.101Z,65.74
2023-03-02T22:31:18.500Z,66.11
2023-03-02T22:33:46.087Z,65.75
2023-03-02T22:36:21.055Z,66.32
2023-03-02T22:38:48.941Z,66.02
2023-03-02T22:41:18.689Z,66.04
2023-03-02T22:43:47.107Z,66.13
2023-03-02T22:46:20.245Z,66.45
2023-03-02T22:48:50.296Z,66.27
2023-03-02T22:51:27.981Z,66.54
2023-03-02T22:53:57.985Z,66.62
2023-03-02T22:56:35.920Z,66.69
2023-03-02T22:59:17.134Z,67.54
2023-03-02T23:01:45.842Z,67.45
2023-03-02T23:04:21.454Z,67.16
2023-03-02T23:06:51.944Z,67.45
2023-03-02T23:09:26.052Z,67.54
2023-03-02T23:11:57.314Z,67.46
2023-03-02T23:14:47.113Z,67.22
2023-03-02T23:17:21.500Z,67.73
2023-03-02T23:19:50.915Z,67.79
2023-03-02T23:22:18.550Z,67.24
2023-03-02T23:24:46.182Z,67.47
2023-03-02T23:27:13.721Z,67.65
2023-03-02T23:29:41.295Z,67.64
2023-03-02T23:32:09.742Z,67.56
2023-03-02T23:34:37.349Z,67.22
2023-03-02T23:37:07.440Z,67.37
2023-03-02T23:39:34.974Z,67.04
2023-03-02T23:42:02.657Z,66.71
2023-03-02T23:44:32.900Z,67.06
2023-03-02T23:47:01.370Z,67.13
2023-03-02T23:49:28.968Z,67.01
2023-03-02T23:51:56.595Z,67.25
2023-03-02T23:54:24.028Z,67.03
2023-03-02T23:56:51.512Z,67.11
2023-03-02T23:59:19.454Z,66.87
